createdAt,value
2019-02-20T00:00:58.627Z,101901.72
2019-02-20T00:03:28.044Z,101899.11
2019-02-20T00:05:57.232Z,101906.07
2019-02-20T00:08:26.405Z,101914.86
2019-02-20T00:10:56.552Z,101904.77
2019-02-20T00:13:25.725Z,101910.42
2019-02-20T00:15:54.901Z,101916.95
2019-02-20T00:18:24.098Z,101908.49
2019-02-20T00:20:53.291Z,101910.12
2019-02-20T00:23:22.465Z,101909.69
2019-02-20T00:25:51.665Z,101919.55
2019-02-20T00:28:20.851Z,101916.98
2019-02-20T00:30:50.028Z,101919.41
2019-02-20T00:33:19.226Z,101912.36
2019-02-20T00:35:48.316Z,101914.94
2019-02-20T00:38:17.493Z,101909.09
2019-02-20T00:40:46.700Z,101913.41
2019-02-20T00:43:15.866Z,101910.86
2019-02-20T00:45:46.699Z,101911.59
2019-02-20T00:48:23.324Z,101910.89
2019-02-20T00:51:00.043Z,101913.41
2019-02-20T00:53:30.899Z,101911.27
2019-02-20T00:56:00.078Z,101910.56
2019-02-20T00:58:29.247Z,101919.45
2019-02-20T01:00:58.447Z,101916.58
2019-02-20T01:03:27.625Z,101922.28
2019-02-20T01:05:56.811Z,101915.30
2019-02-20T01:08:26.039Z,101917.83
2019-02-20T01:10:55.676Z,101918.02
2019-02-20T01:13:24.844Z,101912.30
2019-02-20T01:15:54.048Z,101916.62
2019-02-20T01:18:23.242Z,101916.16
2019-02-20T01:23:21.248Z,101910.97
2019-02-20T01:25:50.430Z,101909.77
2019-02-20T01:28:19.628Z,101908.06
2019-02-20T01:30:48.818Z,101903.92
2019-02-20T01:33:17.993Z,101897.66
2019-02-20T01:35:47.156Z,101899.35
2019-02-20T01:38:16.495Z,101901.13
2019-02-20T01:40:45.674Z,101901.56
2019-02-20T01:43:14.934Z,101904.66
2019-02-20T01:45:44.126Z,101900.82
2019-02-20T01:48:13.296Z,101898.59
2019-02-20T01:50:42.480Z,101897.13
2019-02-20T01:53:11.683Z,101897.75
2019-02-20T01:55:40.892Z,101891.48
2019-02-20T01:58:10.074Z,101891.44
2019-02-20T02:00:39.783Z,101886.89
2019-02-20T02:03:08.958Z,101894.95
2019-02-20T02:05:38.153Z,101885.62
2019-02-20T02:08:07.359Z,101884.17
2019-02-20T02:10:36.539Z,101884.31
2019-02-20T02:13:05.732Z,101879.66
2019-02-20T02:15:34.954Z,101880.77
2019-02-20T02:18:04.492Z,101887.36
2019-02-20T02:20:33.684Z,101883.16
2019-02-20T02:23:02.882Z,101874.44
2019-02-20T02:25:32.054Z,101879.74
2019-02-20T02:28:01.253Z,101870.68
2019-02-20T02:30:30.563Z,101871.94
2019-02-20T02:32:59.760Z,101866.14
2019-02-20T02:35:28.945Z,101869.27
2019-02-20T02:37:58.158Z,101867.98
2019-02-20T02:40:27.350Z,101868.88
2019-02-20T02:42:56.568Z,101861.52
2019-02-20T02:45:25.794Z,101861.59
2019-02-20T02:47:54.967Z,101853.92
2019-02-20T02:50:24.140Z,101860.56
2019-02-20T02:52:53.356Z,101863.73
2019-02-20T02:55:22.533Z,101861.98
2019-02-20T02:57:51.703Z,101869.06
2019-02-20T03:00:20.913Z,101868.95
2019-02-20T03:02:50.098Z,101861.72
2019-02-20T03:05:19.245Z,101867.00
2019-02-20T03:07:48.436Z,101871.23
2019-02-20T03:10:17.662Z,101872.94
2019-02-20T03:12:46.804Z,101873.56
2019-02-20T03:15:16.002Z,101874.09
2019-02-20T03:17:45.182Z,101870.52
2019-02-20T03:20:14.361Z,101868.67
2019-02-20T03:22:43.605Z,101864.55
2019-02-20T03:25:12.844Z,101866.90
2019-02-20T03:27:42.045Z,101872.35
2019-02-20T03:30:11.473Z,101876.41
2019-02-20T03:32:40.681Z,101871.33
2019-02-20T03:35:09.861Z,101870.23
2019-02-20T03:37:39.072Z,101872.69
2019-02-20T03:40:08.887Z,101875.33
2019-02-20T03:42:38.079Z,101875.06
2019-02-20T03:45:08.048Z,101875.02
2019-02-20T03:47:37.254Z,101881.98
2019-02-20T03:50:07.186Z,101880.58
2019-02-20T03:52:36.407Z,101883.59
2019-02-20T03:55:06.837Z,101880.41
2019-02-20T03:57:36.200Z,101882.08
2019-02-20T04:00:08.317Z,101879.23
2019-02-20T04:02:37.494Z,101881.38
2019-02-20T04:05:07.001Z,101883.70
2019-02-20T04:07:36.152Z,101883.27
2019-02-20T04:10:06.201Z,101883.56
2019-02-20T04:12:35.384Z,101888.73
2019-02-20T04:15:06.224Z,101887.41
2019-02-20T04:17:36.253Z,101892.59
2019-02-20T04:20:07.395Z,101889.78
2019-02-20T04:22:36.640Z,101886.58
2019-02-20T04:25:06.866Z,101897.34
2019-02-20T04:27:36.037Z,101888.57
2019-02-20T04:30:07.882Z,101894.59
2019-02-20T04:32:37.062Z,101901.55
2019-02-20T04:35:06.473Z,101897.50
2019-02-20T04:37:35.678Z,101893.88
2019-02-20T04:40:06.193Z,101898.95
2019-02-20T04:42:35.382Z,101899.98
2019-02-20T04:45:05.933Z,101898.66
2019-02-20T04:47:35.122Z,101899.70
2019-02-20T04:50:05.509Z,101902.69
2019-02-20T04:52:34.678Z,101897.75
2019-02-20T04:55:04.731Z,101902.99
2019-02-20T04:57:33.918Z,101895.85
2019-02-20T05:00:03.136Z,101895.94
2019-02-20T05:02:32.225Z,101888.78
2019-02-20T05:05:01.419Z,101895.39
2019-02-20T05:07:30.602Z,101897.25
2019-02-20T05:09:59.846Z,101898.50
2019-02-20T05:12:29.078Z,101897.48
2019-02-20T05:14:58.276Z,101893.62
2019-02-20T05:17:27.450Z,101893.90
2019-02-20T05:19:56.628Z,101894.84
2019-02-20T05:22:25.847Z,101893.51
2019-02-20T05:24:55.054Z,101895.39
2019-02-20T05:27:24.267Z,101893.55
2019-02-20T05:29:53.482Z,101896.52
2019-02-20T05:32:22.651Z,101894.68
2019-02-20T05:34:51.925Z,101895.51
2019-02-20T05:37:21.141Z,101898.19
2019-02-20T05:39:50.329Z,101893.94
2019-02-20T05:42:19.519Z,101895.20
2019-02-20T05:44:48.654Z,101896.90
2019-02-20T05:47:17.852Z,101887.77
2019-02-20T05:49:47.057Z,101888.19
2019-02-20T05:52:16.245Z,101897.19
2019-02-20T05:54:45.484Z,101902.72
2019-02-20T05:57:14.616Z,101893.07
2019-02-20T05:59:43.797Z,101900.48
2019-02-20T06:02:13.009Z,101901.86
2019-02-20T06:04:42.187Z,101900.52
2019-02-20T06:07:11.360Z,101903.70
2019-02-20T06:09:40.562Z,101905.02
2019-02-20T06:12:09.829Z,101907.55
2019-02-20T06:14:39.003Z,101905.02
2019-02-20T06:17:08.219Z,101903.92
2019-02-20T06:19:37.405Z,101904.42
2019-02-20T06:22:06.571Z,101908.77
2019-02-20T06:24:43.832Z,101905.16
2019-02-20T06:27:07.923Z,101912.72
2019-02-20T06:29:37.210Z,101913.32
2019-02-20T06:32:06.391Z,101910.70
2019-02-20T06:34:35.582Z,101904.69
2019-02-20T06:37:04.758Z,101911.34
2019-02-20T06:39:33.933Z,101910.38
2019-02-20T06:42:03.125Z,101920.14
2019-02-20T06:44:32.306Z,101924.34
2019-02-20T06:47:01.482Z,101924.13
2019-02-20T06:49:30.681Z,101922.50
2019-02-20T06:51:59.864Z,101929.84
2019-02-20T06:54:29.029Z,101928.47
2019-02-20T06:56:58.244Z,101933.11
2019-02-20T06:59:27.428Z,101935.80
2019-02-20T07:01:56.600Z,101937.43
2019-02-20T07:04:25.792Z,101937.30
2019-02-20T07:06:58.016Z,101945.44
2019-02-20T07:09:42.411Z,101941.10
2019-02-20T07:12:25.867Z,101945.77
2019-02-20T07:15:16.060Z,101949.52
2019-02-20T07:17:54.130Z,101948.84
2019-02-20T07:20:50.274Z,101951.17
2019-02-20T07:23:31.284Z,101955.75
2019-02-20T07:26:12.431Z,101945.52
2019-02-20T07:28:44.659Z,101955.13
2019-02-20T07:31:13.829Z,101966.27
2019-02-20T07:33:43.027Z,101962.32
2019-02-20T07:36:12.248Z,101965.81
2019-02-20T07:38:41.439Z,101969.91
2019-02-20T07:41:10.538Z,101970.47
2019-02-20T07:43:39.746Z,101969.09
2019-02-20T07:46:08.927Z,101973.58
2019-02-20T07:48:38.147Z,101973.27
2019-02-20T07:51:07.347Z,101981.41
2019-02-20T07:53:36.518Z,101987.83
2019-02-20T07:56:05.690Z,101989.44
2019-02-20T07:58:34.922Z,101996.39
2019-02-20T08:01:04.110Z,101996.15
2019-02-20T08:03:33.292Z,102001.73
2019-02-20T08:06:02.487Z,102010.78
2019-02-20T08:08:31.717Z,102012.56
2019-02-20T08:11:00.875Z,102015.12
2019-02-20T08:13:38.923Z,102014.63
2019-02-20T08:16:01.037Z,102019.31
2019-02-20T08:18:30.229Z,102021.98
2019-02-20T08:20:59.490Z,102022.42
2019-02-20T08:23:28.672Z,102022.86
2019-02-20T08:25:59.649Z,102017.30
2019-02-20T08:28:28.699Z,102024.07
2019-02-20T08:30:57.892Z,102022.69
2019-02-20T08:33:27.067Z,102025.79
2019-02-20T08:35:56.279Z,102027.53
2019-02-20T08:38:25.460Z,102036.38
2019-02-20T08:40:54.644Z,102031.92
2019-02-20T08:43:23.884Z,102035.80
2019-02-20T08:45:53.060Z,102038.05
2019-02-20T08:48:22.251Z,102043.23
2019-02-20T08:50:51.452Z,102045.17
2019-02-20T08:53:20.633Z,102043.80
2019-02-20T08:55:49.831Z,102038.14
2019-02-20T08:58:20.675Z,102046.64
2019-02-20T09:00:50.063Z,102058.66
2019-02-20T09:03:19.243Z,102060.87
2019-02-20T09:05:48.453Z,102049.23
2019-02-20T09:08:17.771Z,102052.59
2019-02-20T09:10:46.858Z,102052.61
2019-02-20T09:13:16.056Z,102047.86
2019-02-20T09:15:45.305Z,102050.47
2019-02-20T09:18:14.505Z,102050.59
2019-02-20T09:20:43.695Z,102049.14
2019-02-20T09:23:12.874Z,102051.66
2019-02-20T09:25:42.036Z,102058.05
2019-02-20T09:28:11.169Z,102054.80
2019-02-20T09:30:40.424Z,102057.23
2019-02-20T09:33:09.623Z,102060.80
2019-02-20T09:35:38.756Z,102062.48
2019-02-20T09:38:10.394Z,102061.06
2019-02-20T09:40:39.205Z,102062.66
2019-02-20T09:43:08.385Z,102060.80
2019-02-20T09:45:41.974Z,102060.39
2019-02-20T09:48:08.900Z,102058.44
2019-02-20T09:50:38.094Z,102052.94
2019-02-20T09:53:07.286Z,102058.05
2019-02-20T09:55:36.514Z,102051.97
2019-02-20T09:58:05.696Z,102055.02
2019-02-20T10:00:34.915Z,102052.34
2019-02-20T10:03:04.097Z,102055.23
2019-02-20T10:05:33.286Z,102053.37
2019-02-20T10:08:04.436Z,102057.69
2019-02-20T10:10:33.480Z,102055.67
2019-02-20T10:13:02.670Z,102057.66
2019-02-20T10:15:31.890Z,102060.82
2019-02-20T10:18:01.065Z,102065.77
2019-02-20T10:20:30.240Z,102068.25
2019-02-20T10:22:59.436Z,102066.77
2019-02-20T10:25:28.618Z,102066.88
2019-02-20T10:27:57.812Z,102063.47
2019-02-20T10:30:27.017Z,102068.50
2019-02-20T10:32:56.194Z,102072.12
2019-02-20T10:35:25.375Z,102070.45
2019-02-20T10:37:54.570Z,102072.81
2019-02-20T10:40:23.731Z,102073.71
2019-02-20T10:42:52.901Z,102072.23
2019-02-20T10:45:22.231Z,102074.89
2019-02-20T10:47:51.399Z,102082.41
2019-02-20T10:50:20.571Z,102074.76
2019-02-20T10:52:49.783Z,102078.99
2019-02-20T10:55:19.112Z,102076.78
2019-02-20T10:57:48.317Z,102074.41
2019-02-20T11:00:23.886Z,102075.45
2019-02-20T11:02:50.371Z,102083.27
2019-02-20T11:05:19.707Z,102082.76
2019-02-20T11:07:48.922Z,102082.44
2019-02-20T11:10:18.114Z,102084.31
2019-02-20T11:12:47.297Z,102085.25
2019-02-20T11:15:16.506Z,102084.59
2019-02-20T11:17:45.677Z,102087.39
2019-02-20T11:20:14.875Z,102084.70
2019-02-20T11:22:44.071Z,102085.77
2019-02-20T11:25:13.810Z,102085.77
2019-02-20T11:27:42.983Z,102088.58
2019-02-20T11:30:20.877Z,102084.06
2019-02-20T11:32:50.064Z,102089.12
2019-02-20T11:35:19.272Z,102081.31
2019-02-20T11:37:48.471Z,102097.87
2019-02-20T11:40:17.641Z,102084.66
2019-02-20T11:42:46.825Z,102093.14
2019-02-20T11:45:17.086Z,102095.88
2019-02-20T11:47:46.268Z,102095.88
2019-02-20T11:50:15.518Z,102085.69
2019-02-20T11:52:44.724Z,102089.28
2019-02-20T11:55:16.620Z,102094.20
2019-02-20T11:57:45.849Z,102087.58
2019-02-20T12:00:16.772Z,102094.31
2019-02-20T12:02:45.982Z,102095.30
2019-02-20T12:05:15.138Z,102095.30
2019-02-20T12:07:44.330Z,102073.48
2019-02-20T12:10:15.373Z,102073.48
2019-02-20T12:12:44.629Z,102079.62
2019-02-20T12:15:13.947Z,102077.06
2019-02-20T12:17:43.150Z,102076.27
2019-02-20T12:20:12.479Z,102076.27
2019-02-20T12:22:41.743Z,102070.20
2019-02-20T12:25:11.296Z,102077.19
2019-02-20T12:27:40.499Z,102078.67
2019-02-20T12:30:11.881Z,102077.56
2019-02-20T12:32:41.251Z,102072.05
2019-02-20T12:35:10.448Z,102072.05
2019-02-20T12:37:39.624Z,102077.72
2019-02-20T12:40:10.560Z,102068.23
2019-02-20T12:42:39.798Z,102080.72
2019-02-20T12:45:09.631Z,102077.32
2019-02-20T12:47:38.817Z,102081.92
2019-02-20T12:50:12.625Z,102091.44
2019-02-20T12:52:41.828Z,102089.66
2019-02-20T12:55:11.287Z,102079.81
2019-02-20T12:57:40.468Z,102087.53
2019-02-20T13:00:12.024Z,102087.53
2019-02-20T13:02:41.259Z,102075.14
2019-02-20T13:05:10.467Z,102075.14
2019-02-20T13:07:39.648Z,102083.28
2019-02-20T13:10:09.589Z,102077.98
2019-02-20T13:12:38.775Z,102070.98
2019-02-20T13:15:11.897Z,102070.98
2019-02-20T13:17:41.374Z,102073.23
2019-02-20T13:20:11.709Z,102070.52
2019-02-20T13:22:40.914Z,102073.38
2019-02-20T13:25:10.934Z,102073.38
2019-02-20T13:27:45.795Z,102062.00
2019-02-20T13:30:15.940Z,102066.20
2019-02-20T13:32:45.123Z,102066.20
2019-02-20T13:35:14.305Z,102067.84
2019-02-20T13:37:43.525Z,102064.47
2019-02-20T13:40:12.787Z,102080.56
2019-02-20T13:42:41.964Z,102080.56
2019-02-20T13:45:11.161Z,102084.10
2019-02-20T13:47:40.555Z,102077.23
2019-02-20T13:50:12.507Z,102076.66
2019-02-20T13:52:42.243Z,102084.36
2019-02-20T13:55:11.520Z,102083.67
2019-02-20T13:57:40.771Z,102084.14
2019-02-20T14:00:13.425Z,102084.14
2019-02-20T14:02:43.012Z,102083.89
2019-02-20T14:05:12.262Z,102081.04
2019-02-20T14:07:41.772Z,102086.92
2019-02-20T14:10:12.778Z,102092.28
2019-02-20T14:12:41.987Z,102092.28
2019-02-20T14:15:12.680Z,102089.41
2019-02-20T14:17:41.856Z,102097.30
2019-02-20T14:20:12.522Z,102097.30
2019-02-20T14:22:42.032Z,102089.20
2019-02-20T14:25:11.669Z,102080.59
2019-02-20T14:27:40.852Z,102084.88
2019-02-20T14:30:11.779Z,102084.88
2019-02-20T14:32:40.981Z,102080.77
2019-02-20T14:35:14.958Z,102080.77
2019-02-20T14:37:44.147Z,102085.14
2019-02-20T14:40:13.767Z,102098.85
2019-02-20T14:42:42.985Z,102098.85
2019-02-20T14:45:18.139Z,102084.10
2019-02-20T14:47:47.312Z,102095.30
2019-02-20T14:50:16.514Z,102099.72
2019-02-20T14:52:45.697Z,102099.72
2019-02-20T14:55:14.882Z,102103.74
2019-02-20T14:57:44.099Z,102103.74
2019-02-20T15:00:14.998Z,102109.44
2019-02-20T15:02:44.186Z,102110.02
2019-02-20T15:05:13.531Z,102110.02
2019-02-20T15:07:42.716Z,102103.23
2019-02-20T15:10:12.038Z,102101.06
2019-02-20T15:12:41.251Z,102106.12
2019-02-20T15:15:12.812Z,102093.44
2019-02-20T15:17:41.986Z,102103.35
2019-02-20T15:20:11.440Z,102103.35
2019-02-20T15:22:40.615Z,102103.79
2019-02-20T15:25:10.343Z,102106.52
2019-02-20T15:27:39.541Z,102094.53
2019-02-20T15:30:16.638Z,102095.09
2019-02-20T15:32:45.834Z,102095.09
2019-02-20T15:35:16.178Z,102099.94
2019-02-20T15:37:45.350Z,102099.94
2019-02-20T15:40:14.602Z,102106.42
2019-02-20T15:42:43.782Z,102101.06
2019-02-20T15:45:13.327Z,102100.23
2019-02-20T15:47:42.500Z,102100.23
2019-02-20T15:50:13.809Z,102099.46
2019-02-20T15:52:43.026Z,102099.46
2019-02-20T15:55:12.852Z,102101.53
2019-02-20T15:57:42.176Z,102102.31
2019-02-20T16:00:18.157Z,102111.75
2019-02-20T16:02:47.334Z,102111.75
2019-02-20T16:05:16.929Z,102109.67
2019-02-20T16:07:46.834Z,102110.76
2019-02-20T16:10:16.648Z,102112.57
2019-02-20T16:12:45.822Z,102105.30
2019-02-20T16:15:15.191Z,102104.61
2019-02-20T16:17:44.947Z,102103.84
2019-02-20T16:20:14.766Z,102104.87
2019-02-20T16:22:43.955Z,102100.50
2019-02-20T16:25:16.665Z,102100.50
2019-02-20T16:27:47.447Z,102104.48
2019-02-20T16:30:16.823Z,102098.13
2019-02-20T16:32:46.011Z,102098.13
2019-02-20T16:35:15.474Z,102107.51
2019-02-20T16:37:44.642Z,102099.11
2019-02-20T16:40:16.198Z,102099.11
2019-02-20T16:42:45.515Z,102088.91
2019-02-20T16:45:20.207Z,102093.27
2019-02-20T16:47:49.431Z,102097.81
2019-02-20T16:50:18.690Z,102103.70
2019-02-20T16:52:47.876Z,102097.51
2019-02-20T16:55:22.437Z,102101.45
2019-02-20T16:57:56.280Z,102101.97
2019-02-20T17:00:21.199Z,102101.41
2019-02-20T17:02:50.943Z,102095.27
2019-02-20T17:05:20.428Z,102091.32
2019-02-20T17:07:49.642Z,102091.32
2019-02-20T17:10:18.964Z,102091.05
2019-02-20T17:12:48.168Z,102105.13
2019-02-20T17:15:18.014Z,102105.13
2019-02-20T17:17:47.203Z,102105.73
2019-02-20T17:20:18.680Z,102105.73
2019-02-20T17:22:47.886Z,102117.36
2019-02-20T17:25:18.311Z,102114.05
2019-02-20T17:27:47.500Z,102114.65
2019-02-20T17:30:17.966Z,102114.65
2019-02-20T17:32:47.511Z,102133.76
2019-02-20T17:35:17.411Z,102133.76
2019-02-20T17:37:46.727Z,102132.03
2019-02-20T17:40:17.234Z,102132.03
2019-02-20T17:42:46.454Z,102128.48
2019-02-20T17:45:19.309Z,102122.49
2019-02-20T17:47:48.595Z,102125.72
2019-02-20T17:50:23.698Z,102138.05
2019-02-20T17:52:52.899Z,102138.05
2019-02-20T17:55:22.176Z,102137.53
2019-02-20T17:57:51.551Z,102130.95
2019-02-20T18:00:22.835Z,102137.64
2019-02-20T18:02:52.030Z,102140.08
2019-02-20T18:05:21.237Z,102138.45
2019-02-20T18:07:51.968Z,102142.30
2019-02-20T18:10:21.242Z,102148.27
2019-02-20T18:12:50.436Z,102148.27
2019-02-20T18:15:19.655Z,102147.63
2019-02-20T18:17:48.748Z,102147.63
2019-02-20T18:20:17.974Z,102143.50
2019-02-20T18:22:47.167Z,102143.50
2019-02-20T18:25:16.428Z,102145.67
2019-02-20T18:27:45.615Z,102145.67
2019-02-20T18:30:15.862Z,102148.05
2019-02-20T18:32:45.075Z,102153.77
2019-02-20T18:35:18.558Z,102155.98
2019-02-20T18:37:47.758Z,102155.98
2019-02-20T18:40:17.790Z,102157.46
2019-02-20T18:42:46.999Z,102158.80
2019-02-20T18:45:16.584Z,102168.23
2019-02-20T18:47:45.815Z,102169.75
2019-02-20T18:50:16.049Z,102168.23
2019-02-20T18:52:45.300Z,102171.34
2019-02-20T18:55:14.857Z,102164.19
2019-02-20T18:57:44.099Z,102179.48
2019-02-20T19:00:20.636Z,102179.48
2019-02-20T19:02:49.843Z,102184.30
2019-02-20T19:05:19.336Z,102186.03
2019-02-20T19:07:48.713Z,102184.67
2019-02-20T19:10:29.853Z,102184.67
2019-02-20T19:13:23.406Z,102180.36
2019-02-20T19:16:13.684Z,102178.92
2019-02-20T19:19:06.633Z,102185.71
2019-02-20T19:21:38.895Z,102185.71
2019-02-20T19:24:30.597Z,102191.16
2019-02-20T19:27:14.936Z,102190.19
2019-02-20T19:30:27.986Z,102197.92
2019-02-20T19:33:40.839Z,102191.25
2019-02-20T19:36:21.566Z,102186.83
2019-02-20T19:39:26.996Z,102187.64
2019-02-20T19:42:20.085Z,102190.79
2019-02-20T19:44:52.320Z,102190.79
2019-02-20T19:47:40.796Z,102197.53
2019-02-20T19:50:33.953Z,102204.41
2019-02-20T19:53:14.881Z,102198.50
2019-02-20T19:56:07.457Z,102195.85
2019-02-20T19:59:04.609Z,102199.64
2019-02-20T20:01:47.934Z,102191.00
2019-02-20T20:04:50.397Z,102183.95
2019-02-20T20:07:27.161Z,102177.53
2019-02-20T20:10:17.111Z,102173.17
2019-02-20T20:13:07.185Z,102171.09
2019-02-20T20:15:42.860Z,102172.55
2019-02-20T20:18:39.024Z,102168.68
2019-02-20T20:21:29.200Z,102170.86
2019-02-20T20:24:24.022Z,102166.94
2019-02-20T20:27:04.670Z,102162.03
2019-02-20T20:29:39.534Z,102159.09
2019-02-20T20:32:17.110Z,102157.23
2019-02-20T20:35:08.671Z,102150.93
2019-02-20T20:37:52.681Z,102155.02
2019-02-20T20:40:27.531Z,102165.77
2019-02-20T20:43:05.674Z,102162.80
2019-02-20T20:45:43.561Z,102148.85
2019-02-20T20:48:34.916Z,102176.70
2019-02-20T20:51:22.009Z,102191.34
2019-02-20T20:53:56.190Z,102188.73
2019-02-20T20:56:39.839Z,102192.19
2019-02-20T20:59:37.358Z,102191.72
2019-02-20T21:02:09.651Z,102194.34
2019-02-20T21:04:57.109Z,102193.80
2019-02-20T21:07:29.408Z,102196.30
2019-02-20T21:10:01.714Z,102192.73
2019-02-20T21:12:53.777Z,102188.60
2019-02-20T21:15:28.890Z,102184.56
2019-02-20T21:18:13.369Z,102182.27
2019-02-20T21:21:00.689Z,102190.58
2019-02-20T21:23:58.746Z,102195.11
2019-02-20T21:26:36.781Z,102189.70
2019-02-20T21:29:09.097Z,102197.98
2019-02-20T21:32:01.020Z,102206.09
2019-02-20T21:34:49.751Z,102207.78
2019-02-20T21:37:42.877Z,102209.23
2019-02-20T21:40:34.600Z,102206.09
2019-02-20T21:43:21.847Z,102207.78
2019-02-20T21:46:27.271Z,102201.81
2019-02-20T21:48:59.565Z,102203.31
2019-02-20T21:52:08.224Z,102205.05
2019-02-20T21:55:32.026Z,102194.04
2019-02-20T21:58:34.442Z,102198.42
2019-02-20T22:01:18.698Z,102204.97
2019-02-20T22:03:51.000Z,102209.90
2019-02-20T22:06:25.955Z,102206.63
2019-02-20T22:09:06.622Z,102201.16
2019-02-20T22:11:50.873Z,102206.59
2019-02-20T22:14:34.915Z,102211.57
2019-02-20T22:17:35.749Z,102214.23
2019-02-20T22:20:16.975Z,102216.80
2019-02-20T22:23:00.700Z,102228.59
2019-02-20T22:25:45.096Z,102220.11
2019-02-20T22:28:34.598Z,102226.44
2019-02-20T22:31:32.849Z,102227.70
2019-02-20T22:34:21.431Z,102226.48
2019-02-20T22:36:53.709Z,102219.01
2019-02-20T22:39:31.870Z,102220.02
2019-02-20T22:42:15.753Z,102225.73
2019-02-20T22:45:05.754Z,102222.69
2019-02-20T22:47:43.652Z,102229.76
2019-02-20T22:50:34.171Z,102234.19
2019-02-20T22:53:11.825Z,102235.19
2019-02-20T22:56:01.721Z,102235.14
2019-02-20T22:58:45.576Z,102233.63
2019-02-20T23:01:23.109Z,102234.17
2019-02-20T23:04:10.671Z,102234.67
2019-02-20T23:07:07.384Z,102233.77
2019-02-20T23:09:45.415Z,102230.67
2019-02-20T23:12:36.738Z,102235.09
2019-02-20T23:15:06.920Z,102229.34
2019-02-20T23:17:36.173Z,102232.52
2019-02-20T23:20:07.797Z,102234.41
2019-02-20T23:22:37.136Z,102237.61
2019-02-20T23:25:06.952Z,102237.97
2019-02-20T23:27:36.182Z,102238.78
2019-02-20T23:30:12.812Z,102243.11
2019-02-20T23:32:39.378Z,102242.77
2019-02-20T23:35:09.395Z,102241.45
2019-02-20T23:37:38.626Z,102245.86
2019-02-20T23:40:09.967Z,102248.12
2019-02-20T23:42:39.135Z,102246.84
2019-02-20T23:45:09.620Z,102247.47
2019-02-20T23:47:38.844Z,102246.84
2019-02-20T23:50:08.751Z,102253.69
2019-02-20T23:52:37.978Z,102257.34
2019-02-20T23:55:07.446Z,102268.36
2019-02-20T23:57:36.691Z,102272.73
